createdAt,value
2022-09-06T00:00:50.343Z,100829.69
2022-09-06T00:03:14.539Z,100860.47
2022-09-06T00:05:39.113Z,100861.91
2022-09-06T00:08:04.531Z,100839.69
2022-09-06T00:10:31.807Z,100855.16
2022-09-06T00:12:57.103Z,100838.88
2022-09-06T00:15:22.416Z,100849.00
2022-09-06T00:17:46.695Z,100849.09
2022-09-06T00:20:10.895Z,100830.84
2022-09-06T00:22:35.012Z,100847.00
2022-09-06T00:24:59.104Z,100836.72
2022-09-06T00:27:24.529Z,100837.88
2022-09-06T00:29:48.424Z,100845.75
2022-09-06T00:32:12.598Z,100836.56
2022-09-06T00:34:36.491Z,100843.19
2022-09-06T00:37:00.549Z,100833.50
2022-09-06T00:39:24.732Z,100827.22
2022-09-06T00:41:48.909Z,100831.97
2022-09-06T00:44:14.305Z,100842.81
2022-09-06T00:46:41.168Z,100839.78
2022-09-06T00:49:10.354Z,100836.94
2022-09-06T00:51:36.605Z,100839.00
2022-09-06T00:54:04.539Z,100842.06
2022-09-06T00:56:29.118Z,100845.31
2022-09-06T00:58:53.552Z,100846.63
2022-09-06T01:01:19.121Z,100852.50
2022-09-06T01:03:43.600Z,100845.56
2022-09-06T01:06:20.279Z,100846.25
2022-09-06T01:08:59.759Z,100849.84
2022-09-06T01:11:39.252Z,100855.59
2022-09-06T01:14:15.813Z,100810.31
2022-09-06T01:16:46.115Z,100851.84
2022-09-06T01:19:45.410Z,100858.22
2022-09-06T01:22:20.929Z,100851.97
2022-09-06T01:25:06.008Z,100828.16
2022-09-06T01:27:51.839Z,100859.09
2022-09-06T01:30:18.809Z,100816.66
2022-09-06T01:32:51.411Z,100857.47
2022-09-06T01:35:22.511Z,100796.13
2022-09-06T01:37:48.138Z,100851.09
2022-09-06T01:40:12.303Z,100851.00
2022-09-06T01:42:37.945Z,100811.63
2022-09-06T01:45:06.682Z,100845.00
2022-09-06T01:47:40.595Z,100846.50
2022-09-06T01:50:22.196Z,100845.84
2022-09-06T01:52:57.820Z,100835.03
2022-09-06T01:55:29.390Z,100824.09
2022-09-06T01:58:11.282Z,100831.50
2022-09-06T02:00:45.042Z,100840.72
2022-09-06T02:03:16.328Z,100835.41
2022-09-06T02:05:46.011Z,100827.22
2022-09-06T02:08:15.813Z,100836.16
2022-09-06T02:10:44.841Z,100828.81
2022-09-06T02:13:11.662Z,100775.13
2022-09-06T02:15:41.125Z,100832.16
2022-09-06T02:18:10.511Z,100822.81
2022-09-06T02:20:38.962Z,100818.44
2022-09-06T02:23:06.468Z,100822.47
2022-09-06T02:25:36.665Z,100825.91
2022-09-06T02:28:00.923Z,100808.41
2022-09-06T02:30:25.098Z,100817.53
2022-09-06T02:32:57.539Z,100799.28
2022-09-06T02:35:21.787Z,100815.53
2022-09-06T02:37:46.455Z,100768.91
2022-09-06T02:40:12.385Z,100794.22
2022-09-06T02:42:36.748Z,100787.75
2022-09-06T02:45:00.668Z,100813.75
2022-09-06T02:47:24.648Z,100819.22
2022-09-06T02:49:50.673Z,100816.09
2022-09-06T02:52:14.852Z,100748.00
2022-09-06T02:54:38.796Z,100822.69
2022-09-06T02:57:02.956Z,100819.34
2022-09-06T02:59:26.948Z,100814.19
2022-09-06T03:01:51.028Z,100813.34
2022-09-06T03:04:15.136Z,100816.69
2022-09-06T03:06:40.525Z,100813.69
2022-09-06T03:09:04.568Z,100806.53
2022-09-06T03:11:29.505Z,100774.94
2022-09-06T03:13:53.549Z,100803.34
2022-09-06T03:16:17.972Z,100815.41
2022-09-06T03:18:42.354Z,100816.13
2022-09-06T03:21:06.689Z,100817.28
2022-09-06T03:23:32.168Z,100817.66
2022-09-06T03:25:56.793Z,100722.56
2022-09-06T03:28:21.938Z,100816.75
2022-09-06T03:30:47.035Z,100792.88
2022-09-06T03:33:11.219Z,100815.50
2022-09-06T03:35:35.128Z,100810.16
2022-09-06T03:37:59.185Z,100818.25
2022-09-06T03:40:24.764Z,100814.16
2022-09-06T03:42:48.742Z,100800.78
2022-09-06T03:45:12.810Z,100822.19
2022-09-06T03:47:37.006Z,100821.88
2022-09-06T03:50:01.312Z,100815.63
2022-09-06T03:52:27.136Z,100820.19
2022-09-06T03:54:52.494Z,100823.22
2022-09-06T03:57:18.421Z,100802.59
2022-09-06T03:59:42.633Z,100823.16
2022-09-06T04:02:07.901Z,100824.75
2022-09-06T04:04:31.907Z,100827.03
2022-09-06T04:06:55.895Z,100826.00
2022-09-06T04:09:20.074Z,100827.16
2022-09-06T04:11:45.215Z,100835.25
2022-09-06T04:14:11.009Z,100826.09
2022-09-06T04:16:35.484Z,100837.69
2022-09-06T04:19:01.567Z,100822.88
2022-09-06T04:21:25.697Z,100786.91
2022-09-06T04:23:50.122Z,100834.53
2022-09-06T04:26:14.115Z,100833.22
2022-09-06T04:28:38.109Z,100836.25
2022-09-06T04:31:05.365Z,100834.03
2022-09-06T04:33:30.367Z,100832.84
2022-09-06T04:35:56.624Z,100792.59
2022-09-06T04:38:21.224Z,100824.91
2022-09-06T04:40:45.245Z,100827.53
2022-09-06T04:43:09.288Z,100836.72
2022-09-06T04:45:33.370Z,100829.63
2022-09-06T04:47:58.820Z,100836.16
2022-09-06T04:50:22.815Z,100838.41
2022-09-06T04:52:46.993Z,100827.59
2022-09-06T04:55:11.283Z,100834.84
2022-09-06T04:57:35.318Z,100824.47
2022-09-06T04:59:59.504Z,100828.75
2022-09-06T05:02:23.557Z,100826.81
2022-09-06T05:04:49.038Z,100811.72
2022-09-06T05:07:13.204Z,100833.25
2022-09-06T05:09:37.975Z,100804.75
2022-09-06T05:12:02.500Z,100829.97
2022-09-06T05:14:26.695Z,100833.72
2022-09-06T05:16:51.546Z,100834.31
2022-09-06T05:19:16.264Z,100842.91
2022-09-06T05:21:42.294Z,100843.53
2022-09-06T05:24:06.943Z,100839.91
2022-09-06T05:26:31.232Z,100838.06
2022-09-06T05:28:57.479Z,100807.16
2022-09-06T05:31:27.992Z,100852.81
2022-09-06T05:33:53.307Z,100812.59
2022-09-06T05:36:17.517Z,100848.22
2022-09-06T05:38:42.927Z,100846.16
2022-09-06T05:41:06.908Z,100832.91
2022-09-06T05:43:31.097Z,100850.19
2022-09-06T05:45:55.147Z,100850.56
2022-09-06T05:48:19.300Z,100855.81
2022-09-06T05:50:43.404Z,100850.91
2022-09-06T05:53:07.858Z,100849.22
2022-09-06T05:55:33.301Z,100851.50
2022-09-06T05:57:57.339Z,100855.53
2022-09-06T06:00:21.511Z,100845.53
2022-09-06T06:02:48.076Z,100820.47
2022-09-06T06:05:12.416Z,100857.84
2022-09-06T06:07:36.440Z,100857.97
2022-09-06T06:10:00.426Z,100855.53
2022-09-06T06:12:25.850Z,100857.22
2022-09-06T06:14:49.804Z,100853.19
2022-09-06T06:17:13.778Z,100860.09
2022-09-06T06:19:37.932Z,100866.22
2022-09-06T06:22:01.870Z,100862.06
2022-09-06T06:24:26.079Z,100857.38
2022-09-06T06:26:50.161Z,100863.72
2022-09-06T06:29:15.529Z,100853.94
2022-09-06T06:31:40.300Z,100827.31
2022-09-06T06:34:05.849Z,100862.19
2022-09-06T06:36:31.781Z,100855.50
2022-09-06T06:38:56.623Z,100838.66
2022-09-06T06:41:23.949Z,100826.97
2022-09-06T06:43:48.484Z,100851.50
2022-09-06T06:46:16.293Z,100861.47
2022-09-06T06:48:41.450Z,100851.56
2022-09-06T06:51:05.649Z,100839.19
2022-09-06T06:53:30.218Z,100859.28
2022-09-06T06:55:54.593Z,100858.31
2022-09-06T06:58:19.856Z,100850.06
2022-09-06T07:00:44.126Z,100859.09
2022-09-06T07:03:10.243Z,100855.50
2022-09-06T07:08:18.501Z,100862.03
2022-09-06T07:10:42.530Z,100858.69
2022-09-06T07:13:06.494Z,100855.88
2022-09-06T07:15:30.766Z,100832.94
2022-09-06T07:17:56.309Z,100841.28
2022-09-06T07:20:21.631Z,100859.16
2022-09-06T07:22:45.827Z,100862.78
2022-09-06T07:25:14.513Z,100852.69
2022-09-06T07:27:49.095Z,100827.22
2022-09-06T07:30:15.013Z,100864.81
2022-09-06T07:32:39.118Z,100869.66
2022-09-06T07:35:03.162Z,100856.00
2022-09-06T07:37:29.213Z,100854.97
2022-09-06T07:39:53.315Z,100873.34
2022-09-06T07:42:17.451Z,100872.41
2022-09-06T07:44:41.638Z,100855.94
2022-09-06T07:55:20.899Z,100841.44
2022-09-06T07:57:44.900Z,100866.59
2022-09-06T08:00:11.076Z,100861.34
2022-09-06T08:02:38.718Z,100826.91
2022-09-06T08:05:02.816Z,100868.31
2022-09-06T08:07:42.803Z,100864.06
2022-09-06T08:10:09.757Z,100858.53
2022-09-06T08:12:36.443Z,100830.63
2022-09-06T08:15:00.609Z,100869.69
2022-09-06T08:17:24.841Z,100856.94
2022-09-06T08:19:49.343Z,100862.88
2022-09-06T08:22:13.458Z,100860.47
2022-09-06T08:24:38.658Z,100855.84
2022-09-06T08:27:07.716Z,100840.97
2022-09-06T08:29:31.820Z,100844.53
2022-09-06T08:31:57.897Z,100844.94
2022-09-06T08:34:22.013Z,100837.16
2022-09-06T08:36:46.453Z,100844.81
2022-09-06T08:39:12.008Z,100835.72
2022-09-06T08:41:47.411Z,100831.34
2022-09-06T08:47:04.617Z,100840.28
2022-09-06T08:49:31.945Z,100844.22
2022-09-06T08:52:20.118Z,100834.63
2022-09-06T08:54:54.390Z,100835.31
2022-09-06T08:57:39.956Z,100818.16
2022-09-06T09:00:11.056Z,100795.22
2022-09-06T09:02:44.148Z,100783.00
2022-09-06T09:05:21.024Z,100832.06
2022-09-06T09:07:48.275Z,100818.75
2022-09-06T09:10:18.062Z,100822.41
2022-09-06T09:12:47.115Z,100812.34
2022-09-06T09:15:15.070Z,100821.31
2022-09-06T09:17:39.231Z,100813.59
2022-09-06T09:20:03.706Z,100819.28
2022-09-06T09:22:27.965Z,100799.59
2022-09-06T09:24:54.734Z,100810.22
2022-09-06T09:27:21.082Z,100812.22
2022-09-06T09:32:47.648Z,100802.84
2022-09-06T09:35:22.356Z,100799.91
2022-09-06T09:37:47.473Z,100798.72
2022-09-06T09:40:17.222Z,100798.91
2022-09-06T09:42:41.645Z,100794.44
2022-09-06T09:45:23.390Z,100801.69
2022-09-06T09:47:48.818Z,100800.69
2022-09-06T09:50:26.101Z,100795.63
2022-09-06T09:52:50.286Z,100790.59
2022-09-06T09:55:14.392Z,100794.56
2022-09-06T09:57:47.062Z,100787.81
2022-09-06T10:00:14.138Z,100785.44
2022-09-06T10:02:40.432Z,100784.97
2022-09-06T10:05:10.368Z,100745.78
2022-09-06T10:07:35.570Z,100788.88
2022-09-06T10:10:01.083Z,100785.34
2022-09-06T10:12:30.929Z,100760.75
2022-09-06T10:14:54.884Z,100768.44
2022-09-06T10:17:30.037Z,100774.06
2022-09-06T10:19:54.616Z,100781.94
2022-09-06T10:22:50.773Z,100773.66
2022-09-06T10:25:43.977Z,100767.13
2022-09-06T10:28:23.473Z,100746.63
2022-09-06T10:31:10.113Z,100759.22
2022-09-06T10:33:40.663Z,100767.84
2022-09-06T10:36:05.695Z,100730.78
2022-09-06T10:38:42.969Z,100756.81
2022-09-06T10:41:25.197Z,100744.09
2022-09-06T10:43:59.204Z,100729.16
2022-09-06T10:46:28.376Z,100720.72
2022-09-06T10:48:54.563Z,100735.97
2022-09-06T10:51:28.639Z,100742.53
2022-09-06T10:53:58.422Z,100701.94
2022-09-06T10:56:28.265Z,100715.16
2022-09-06T11:01:47.726Z,100728.25
2022-09-06T11:04:23.883Z,100737.78
2022-09-06T11:06:53.408Z,100750.91
2022-09-06T11:09:26.458Z,100722.94
2022-09-06T11:11:59.482Z,100738.19
2022-09-06T11:14:26.853Z,100732.03
2022-09-06T11:16:55.773Z,100735.34
2022-09-06T11:19:26.653Z,100709.75
2022-09-06T11:22:34.561Z,100730.41
2022-09-06T11:25:23.799Z,100731.25
2022-09-06T11:27:57.749Z,100716.25
2022-09-06T11:30:22.951Z,100716.69
2022-09-06T11:32:50.338Z,100724.53
2022-09-06T11:35:23.574Z,100713.44
2022-09-06T11:37:50.784Z,100687.13
2022-09-06T11:40:27.342Z,100696.19
2022-09-06T11:43:15.599Z,100722.88
2022-09-06T11:45:46.848Z,100707.63
2022-09-06T11:48:50.553Z,100716.31
2022-09-06T11:51:33.758Z,100710.31
2022-09-06T11:54:22.938Z,100692.84
2022-09-06T11:56:56.287Z,100711.25
2022-09-06T11:59:35.368Z,100673.59
2022-09-06T12:02:04.493Z,100686.91
2022-09-06T12:05:27.311Z,100695.72
2022-09-06T12:08:34.229Z,100706.44
2022-09-06T12:11:06.348Z,100705.66
2022-09-06T12:14:03.338Z,100693.03
2022-09-06T12:17:07.379Z,100700.09
2022-09-06T12:19:44.477Z,100690.69
2022-09-06T12:22:42.171Z,100675.19
2022-09-06T12:25:07.955Z,100679.38
2022-09-06T12:27:35.098Z,100699.94
2022-09-06T12:30:01.916Z,100685.84
2022-09-06T12:32:34.884Z,100684.03
2022-09-06T12:37:52.511Z,100687.97
2022-09-06T12:40:19.447Z,100660.78
2022-09-06T12:42:46.307Z,100698.56
2022-09-06T12:45:12.512Z,100690.41
2022-09-06T12:47:40.088Z,100685.22
2022-09-06T12:50:14.913Z,100700.34
2022-09-06T12:52:46.751Z,100690.84
2022-09-06T12:55:17.460Z,100694.44
2022-09-06T12:57:51.407Z,100686.06
2022-09-06T13:00:16.164Z,100682.38
2022-09-06T13:02:46.094Z,100662.66
2022-09-06T13:05:13.069Z,100662.88
2022-09-06T13:07:42.632Z,100668.03
2022-09-06T13:10:07.160Z,100667.03
2022-09-06T13:12:34.681Z,100676.06
2022-09-06T13:15:05.779Z,100682.25
2022-09-06T13:17:31.707Z,100652.09
2022-09-06T13:20:00.010Z,100669.56
2022-09-06T13:22:43.119Z,100665.25
2022-09-06T13:25:20.673Z,100681.00
2022-09-06T13:27:50.827Z,100676.91
2022-09-06T13:30:37.747Z,100677.75
2022-09-06T13:33:03.040Z,100661.16
2022-09-06T13:35:30.351Z,100681.97
2022-09-06T13:37:54.280Z,100671.47
2022-09-06T13:41:06.938Z,100668.56
2022-09-06T13:43:27.721Z,100634.50
2022-09-06T13:46:05.401Z,100678.00
2022-09-06T13:48:29.584Z,100670.88
2022-09-06T13:50:53.508Z,100676.81
2022-09-06T13:53:20.722Z,100678.91
2022-09-06T13:55:44.784Z,100677.75
2022-09-06T13:58:09.274Z,100669.66
2022-09-06T14:00:33.150Z,100668.91
2022-09-06T14:02:59.108Z,100657.28
2022-09-06T14:05:23.158Z,100567.75
2022-09-06T14:07:47.312Z,100675.09
2022-09-06T14:10:12.627Z,100684.75
2022-09-06T14:12:38.301Z,100682.81
2022-09-06T14:15:02.522Z,100677.13
2022-09-06T14:17:27.922Z,100668.09
2022-09-06T14:19:53.323Z,100644.34
2022-09-06T14:22:17.475Z,100673.41
2022-09-06T14:24:41.695Z,100679.44
2022-09-06T14:27:08.594Z,100632.09
2022-09-06T14:29:32.903Z,100673.59
2022-09-06T14:31:57.022Z,100670.63
2022-09-06T14:34:21.625Z,100677.00
2022-09-06T14:36:46.991Z,100667.88
2022-09-06T14:39:11.036Z,100660.69
2022-09-06T14:41:35.076Z,100671.63
2022-09-06T14:44:00.368Z,100661.28
2022-09-06T14:46:26.365Z,100657.56
2022-09-06T14:48:56.929Z,100645.63
2022-09-06T14:51:22.619Z,100650.00
2022-09-06T14:53:48.398Z,100662.44
2022-09-06T14:56:13.530Z,100653.91
2022-09-06T14:58:39.173Z,100666.56
2022-09-06T15:01:14.697Z,100664.84
2022-09-06T15:03:39.125Z,100627.41
2022-09-06T15:06:05.191Z,100627.88
2022-09-06T15:08:29.370Z,100657.09
2022-09-06T15:10:56.591Z,100666.41
2022-09-06T15:13:20.616Z,100663.03
2022-09-06T15:15:45.592Z,100661.94
2022-09-06T15:18:09.688Z,100654.31
2022-09-06T15:20:33.756Z,100667.22
2022-09-06T15:23:15.147Z,100637.97
2022-09-06T15:25:47.287Z,100660.59
2022-09-06T15:28:12.901Z,100668.47
2022-09-06T15:30:39.958Z,100658.78
2022-09-06T15:33:03.956Z,100668.13
2022-09-06T15:35:28.170Z,100654.84
2022-09-06T15:37:52.302Z,100671.78
2022-09-06T15:40:17.782Z,100678.22
2022-09-06T15:42:41.978Z,100675.91
2022-09-06T15:45:08.998Z,100671.81
2022-09-06T15:47:35.398Z,100676.69
2022-09-06T15:49:59.619Z,100677.78
2022-09-06T15:52:23.640Z,100683.00
2022-09-06T15:55:05.378Z,100675.25
2022-09-06T15:57:29.736Z,100607.50
2022-09-06T15:59:53.771Z,100670.00
2022-09-06T16:02:19.361Z,100674.94
2022-09-06T16:04:43.579Z,100672.03
2022-09-06T16:07:09.828Z,100665.94
2022-09-06T16:09:34.013Z,100647.06
2022-09-06T16:11:58.277Z,100663.31
2022-09-06T16:14:22.415Z,100662.84
2022-09-06T16:16:47.021Z,100657.63
2022-09-06T16:19:14.208Z,100641.16
2022-09-06T16:21:39.897Z,100657.69
2022-09-06T16:24:06.418Z,100642.84
2022-09-06T16:26:32.700Z,100655.47
2022-09-06T16:28:56.867Z,100657.00
2022-09-06T16:31:22.578Z,100644.28
2022-09-06T16:33:48.935Z,100662.56
2022-09-06T16:36:15.132Z,100649.72
2022-09-06T16:38:41.079Z,100617.63
2022-09-06T16:41:11.621Z,100650.50
2022-09-06T16:43:36.029Z,100656.72
2022-09-06T16:46:02.489Z,100650.63
2022-09-06T16:48:27.095Z,100643.94
2022-09-06T16:50:51.268Z,100616.88
2022-09-06T16:53:20.315Z,100655.53
2022-09-06T16:55:46.403Z,100662.47
2022-09-06T16:58:10.471Z,100633.69
2022-09-06T17:00:34.689Z,100655.75
2022-09-06T17:02:59.467Z,100657.88
2022-09-06T17:05:23.891Z,100665.28
2022-09-06T17:07:47.996Z,100628.31
2022-09-06T17:10:13.575Z,100671.44
2022-09-06T17:12:37.777Z,100658.91
2022-09-06T17:15:01.819Z,100667.38
2022-09-06T17:17:27.858Z,100667.00
2022-09-06T17:19:51.957Z,100673.88
2022-09-06T17:22:16.065Z,100676.09
2022-09-06T17:24:42.738Z,100655.81
2022-09-06T17:27:09.094Z,100682.28
2022-09-06T17:29:33.672Z,100669.78
2022-09-06T17:31:57.939Z,100688.53
2022-09-06T17:34:22.427Z,100660.06
2022-09-06T17:36:46.532Z,100671.72
2022-09-06T17:39:13.941Z,100702.38
2022-09-06T17:41:40.373Z,100698.50
2022-09-06T17:44:06.273Z,100706.59
2022-09-06T17:46:30.643Z,100694.53
2022-09-06T17:48:54.712Z,100707.69
2022-09-06T17:51:19.112Z,100666.84
2022-09-06T17:53:46.354Z,100706.47
2022-09-06T17:56:12.089Z,100713.19
2022-09-06T17:58:36.770Z,100702.13
2022-09-06T18:01:04.733Z,100702.09
2022-09-06T18:03:28.834Z,100702.31
2022-09-06T18:05:52.918Z,100710.28
2022-09-06T18:08:17.162Z,100713.59
2022-09-06T18:10:42.188Z,100720.97
2022-09-06T18:13:07.092Z,100612.34
2022-09-06T18:15:31.540Z,100713.50
2022-09-06T18:17:57.162Z,100714.94
2022-09-06T18:20:21.205Z,100720.06
2022-09-06T18:22:45.635Z,100691.38
2022-09-06T18:25:10.331Z,100722.34
2022-09-06T18:27:35.027Z,100720.28
2022-09-06T18:29:59.667Z,100732.19
2022-09-06T18:32:24.165Z,100724.16
2022-09-06T18:34:49.853Z,100704.69
2022-09-06T18:37:14.724Z,100721.13
2022-09-06T18:39:39.718Z,100725.78
2022-09-06T18:42:07.360Z,100701.06
2022-09-06T18:44:33.216Z,100715.84
2022-09-06T18:46:58.410Z,100733.34
2022-09-06T18:49:22.958Z,100732.75
2022-09-06T18:51:48.746Z,100730.22
2022-09-06T18:54:13.122Z,100574.31
2022-09-06T18:56:40.457Z,100727.19
2022-09-06T18:59:05.995Z,100719.25
2022-09-06T19:01:31.423Z,100713.91
2022-09-06T19:03:57.822Z,100719.81
2022-09-06T19:06:23.194Z,100717.69
2022-09-06T19:08:49.580Z,100724.78
2022-09-06T19:11:17.277Z,100724.31
2022-09-06T19:13:43.022Z,100704.25
2022-09-06T19:16:08.325Z,100725.41
2022-09-06T19:18:33.338Z,100709.22
2022-09-06T19:20:59.175Z,100712.38
2022-09-06T19:23:24.124Z,100725.03
2022-09-06T19:25:58.026Z,100716.09
2022-09-06T19:28:22.311Z,100701.63
2022-09-06T19:30:46.596Z,100720.59
2022-09-06T19:33:10.957Z,100719.66
2022-09-06T19:35:50.856Z,100700.53
2022-09-06T19:38:22.069Z,100712.53
2022-09-06T19:40:46.280Z,100725.06
2022-09-06T19:43:11.940Z,100722.22
2022-09-06T19:45:38.188Z,100705.66
2022-09-06T19:48:02.421Z,100715.81
2022-09-06T19:50:26.601Z,100724.13
2022-09-06T19:52:51.470Z,100726.50
2022-09-06T19:55:16.118Z,100719.25
2022-09-06T19:57:40.239Z,100724.03
2022-09-06T20:00:07.113Z,100722.94
2022-09-06T20:02:36.323Z,100710.03
2022-09-06T20:05:00.382Z,100721.69
2022-09-06T20:07:25.188Z,100716.00
2022-09-06T20:09:52.423Z,100730.53
2022-09-06T20:12:16.967Z,100685.28
2022-09-06T20:14:41.404Z,100684.75
2022-09-06T20:17:32.158Z,100686.56
2022-09-06T20:19:51.813Z,100685.69
2022-09-06T20:22:16.298Z,100733.41
2022-09-06T20:24:40.869Z,100703.41
2022-09-06T20:27:06.021Z,100733.84
2022-09-06T20:29:30.487Z,100692.22
2022-09-06T20:31:54.531Z,100720.06
2022-09-06T20:34:20.324Z,100602.81
2022-09-06T20:36:44.442Z,100695.53
2022-09-06T20:39:09.741Z,100730.63
2022-09-06T20:41:35.005Z,100720.38
2022-09-06T20:44:00.847Z,100731.19
2022-09-06T20:46:26.583Z,100722.63
2022-09-06T20:48:51.843Z,100719.63
2022-09-06T20:51:19.413Z,100715.59
2022-09-06T20:53:44.104Z,100706.63
2022-09-06T20:56:10.963Z,100718.38
2022-09-06T20:58:35.241Z,100716.88
2022-09-06T21:01:00.204Z,100715.59
2022-09-06T21:03:24.711Z,100694.03
2022-09-06T21:05:49.321Z,100711.75
2022-09-06T21:08:14.854Z,100717.31
2022-09-06T21:10:38.839Z,100684.22
2022-09-06T21:13:03.198Z,100684.22
2022-09-06T21:15:27.268Z,100702.97
2022-09-06T21:17:51.414Z,100686.13
2022-09-06T21:20:15.651Z,100696.38
2022-09-06T21:22:39.755Z,100702.13
2022-09-06T21:25:07.772Z,100667.13
2022-09-06T21:27:33.027Z,100686.13
2022-09-06T21:29:57.107Z,100697.09
2022-09-06T21:32:21.118Z,100698.06
2022-09-06T21:34:45.283Z,100701.69
2022-09-06T21:37:09.383Z,100695.28
2022-09-06T21:39:33.440Z,100668.81
2022-09-06T21:41:59.184Z,100676.09
2022-09-06T21:44:23.246Z,100681.00
2022-09-06T21:46:47.429Z,100686.56
2022-09-06T21:49:13.597Z,100695.09
2022-09-06T21:51:38.126Z,100666.19
2022-09-06T21:54:05.080Z,100695.06
2022-09-06T21:56:29.489Z,100681.53
2022-09-06T21:58:56.559Z,100691.00
2022-09-06T22:01:21.027Z,100685.25
2022-09-06T22:03:45.708Z,100674.28
2022-09-06T22:06:11.082Z,100701.06
2022-09-06T22:08:35.218Z,100693.13
2022-09-06T22:11:09.001Z,100692.91
2022-09-06T22:13:33.138Z,100696.38
2022-09-06T22:15:58.798Z,100691.59
2022-09-06T22:18:22.997Z,100701.06
2022-09-06T22:20:47.122Z,100694.84
2022-09-06T22:23:11.354Z,100692.28
2022-09-06T22:25:35.790Z,100676.25
2022-09-06T22:28:00.655Z,100661.31
2022-09-06T22:30:25.934Z,100694.22
2022-09-06T22:32:51.968Z,100697.41
2022-09-06T22:35:16.590Z,100697.84
2022-09-06T22:37:40.993Z,100700.13
2022-09-06T22:40:06.242Z,100671.53
2022-09-06T22:42:30.879Z,100642.44
2022-09-06T22:44:55.259Z,100696.59
2022-09-06T22:47:19.522Z,100681.22
2022-09-06T22:49:45.136Z,100699.00
2022-09-06T22:52:09.302Z,100697.22
2022-09-06T22:54:33.517Z,100680.53
2022-09-06T22:56:57.738Z,100678.22
2022-09-06T22:59:21.774Z,100686.75
2022-09-06T23:01:46.122Z,100692.88
2022-09-06T23:04:11.180Z,100682.06
2022-09-06T23:06:37.661Z,100691.66
2022-09-06T23:09:02.135Z,100684.88
2022-09-06T23:11:27.903Z,100691.88
2022-09-06T23:13:57.016Z,100684.22
2022-09-06T23:16:21.524Z,100689.22
2022-09-06T23:18:46.359Z,100681.84
2022-09-06T23:21:12.943Z,100676.28
2022-09-06T23:23:39.494Z,100677.69
2022-09-06T23:26:11.492Z,100658.34
2022-09-06T23:28:36.308Z,100671.59
2022-09-06T23:31:03.929Z,100647.34
2022-09-06T23:33:28.307Z,100636.28
2022-09-06T23:35:55.733Z,100666.91
2022-09-06T23:38:20.558Z,100672.53
2022-09-06T23:40:46.099Z,100669.03
2022-09-06T23:43:10.467Z,100675.63
2022-09-06T23:45:34.970Z,100662.88
2022-09-06T23:47:59.372Z,100670.22
2022-09-06T23:50:23.725Z,100670.53
2022-09-06T23:52:48.569Z,100662.47
2022-09-06T23:55:12.832Z,100627.97
2022-09-06T23:57:38.793Z,100658.72
